sensor_id;sensor_type;location;lat;lon;timestamp;P1;durP1;ratioP1;P2;durP2;ratioP2
11618;SDS011;5865;48.776;9.280;2022-11-11T01:17:15;10.47;;;7.50;;
11618;SDS011;5865;48.776;9.280;2022-11-11T01:20:15;8.30;;;6.40;;
11618;SDS011;5865;48.776;9.280;2022-11-11T01:23:18;10.83;;;7.27;;
11618;SDS011;5865;48.776;9.280;2022-11-11T01:26:10;10.43;;;7.03;;
11618;SDS011;5865;48.776;9.280;2022-11-11T01:29:11;10.77;;;6.63;;
11618;SDS011;5865;48.776;9.280;2022-11-11T03:11:19;9.83;;;6.77;;
11618;SDS011;5865;48.776;9.280;2022-11-11T03:14:18;9.30;;;6.80;;
11618;SDS011;5865;48.776;9.280;2022-11-11T03:17:18;9.63;;;7.00;;
11618;SDS011;5865;48.776;9.280;2022-11-11T03:20:22;11.43;;;7.53;;
11618;SDS011;5865;48.776;9.280;2022-11-11T03:23:26;12.60;;;8.17;;
11618;SDS011;5865;48.776;9.280;2022-11-11T04:23:01;9.77;;;7.77;;
11618;SDS011;5865;48.776;9.280;2022-11-11T04:26:01;12.77;;;8.50;;
11618;SDS011;5865;48.776;9.280;2022-11-11T04:29:01;12.23;;;8.10;;
11618;SDS011;5865;48.776;9.280;2022-11-11T04:32:06;8.77;;;7.43;;
11618;SDS011;5865;48.776;9.280;2022-11-11T04:35:13;11.83;;;8.60;;
11618;SDS011;5865;48.776;9.280;2022-11-11T05:41:32;7.57;;;6.17;;
11618;SDS011;5865;48.776;9.280;2022-11-11T05:44:31;9.07;;;6.83;;
11618;SDS011;5865;48.776;9.280;2022-11-11T05:47:31;7.83;;;6.63;;
11618;SDS011;5865;48.776;9.280;2022-11-11T05:50:37;9.77;;;7.37;;
11618;SDS011;5865;48.776;9.280;2022-11-11T05:53:37;9.77;;;7.77;;
11618;SDS011;5865;48.776;9.280;2022-11-11T06:17:01;9.40;;;7.57;;
11618;SDS011;5865;48.776;9.280;2022-11-11T06:20:05;12.47;;;8.53;;
11618;SDS011;5865;48.776;9.280;2022-11-11T06:23:04;14.00;;;8.80;;
11618;SDS011;5865;48.776;9.280;2022-11-11T06:26:04;16.50;;;8.80;;
11618;SDS011;5865;48.776;9.280;2022-11-11T06:29:10;10.13;;;7.43;;
11618;SDS011;5865;48.776;9.280;2022-11-11T07:16:25;11.23;;;8.63;;
11618;SDS011;5865;48.776;9.280;2022-11-11T07:19:24;12.00;;;9.50;;
11618;SDS011;5865;48.776;9.280;2022-11-11T07:22:24;12.80;;;11.40;;
11618;SDS011;5865;48.776;9.280;2022-11-11T07:32:06;10.80;;;8.17;;
11618;SDS011;5865;48.776;9.280;2022-11-11T07:34:52;10.70;;;8.47;;
11618;SDS011;5865;48.776;9.280;2022-11-11T07:37:37;10.73;;;8.30;;
11618;SDS011;5865;48.776;9.280;2022-11-11T07:40:23;10.73;;;8.70;;
11618;SDS011;5865;48.776;9.280;2022-11-11T07:43:09;14.73;;;11.77;;
11618;SDS011;5865;48.776;9.280;2022-11-11T07:45:54;30.73;;;27.73;;
11618;SDS011;5865;48.776;9.280;2022-11-11T07:48:41;24.40;;;21.80;;
11618;SDS011;5865;48.776;9.280;2022-11-11T07:51:26;13.70;;;10.70;;
11618;SDS011;5865;48.776;9.280;2022-11-11T07:54:12;10.40;;;8.43;;
11618;SDS011;5865;48.776;9.280;2022-11-11T07:56:58;11.87;;;8.77;;
11618;SDS011;5865;48.776;9.280;2022-11-11T07:59:57;10.77;;;9.03;;
11618;SDS011;5865;48.776;9.280;2022-11-11T08:02:57;10.57;;;7.53;;
11618;SDS011;5865;48.776;9.280;2022-11-11T08:05:44;10.77;;;7.47;;
11618;SDS011;5865;48.776;9.280;2022-11-11T08:08:30;10.73;;;7.80;;
11618;SDS011;5865;48.776;9.280;2022-11-11T08:11:16;10.83;;;7.70;;
11618;SDS011;5865;48.776;9.280;2022-11-11T08:14:22;10.27;;;8.17;;
11618;SDS011;5865;48.776;9.280;2022-11-11T08:17:07;10.67;;;7.70;;
11618;SDS011;5865;48.776;9.280;2022-11-11T08:19:52;11.13;;;7.17;;
11618;SDS011;5865;48.776;9.280;2022-11-11T08:22:40;10.00;;;7.23;;
11618;SDS011;5865;48.776;9.280;2022-11-11T08:25:26;9.37;;;7.03;;
11618;SDS011;5865;48.776;9.280;2022-11-11T08:28:13;10.00;;;7.30;;
11618;SDS011;5865;48.776;9.280;2022-11-11T08:30:59;8.00;;;5.97;;
11618;SDS011;5865;48.776;9.280;2022-11-11T08:33:45;9.30;;;6.47;;
11618;SDS011;5865;48.776;9.280;2022-11-11T08:36:45;9.70;;;6.30;;
11618;SDS011;5865;48.776;9.280;2022-11-11T08:39:48;8.47;;;5.87;;
11618;SDS011;5865;48.776;9.280;2022-11-11T08:42:35;8.73;;;6.70;;
11618;SDS011;5865;48.776;9.280;2022-11-11T08:45:20;8.60;;;6.63;;
11618;SDS011;5865;48.776;9.280;2022-11-11T08:48:08;9.17;;;6.53;;
11618;SDS011;5865;48.776;9.280;2022-11-11T08:51:07;8.53;;;6.17;;
11618;SDS011;5865;48.776;9.280;2022-11-11T08:54:07;7.70;;;5.47;;
11618;SDS011;5865;48.776;9.280;2022-11-11T09:10:51;7.00;;;6.00;;
11618;SDS011;5865;48.776;9.280;2022-11-11T09:13:51;6.87;;;5.17;;
11618;SDS011;5865;48.776;9.280;2022-11-11T09:16:50;6.70;;;4.87;;
11618;SDS011;5865;48.776;9.280;2022-11-11T09:19:37;6.27;;;4.90;;
11618;SDS011;5865;48.776;9.280;2022-11-11T09:22:40;6.43;;;4.60;;
11618;SDS011;5865;48.776;9.280;2022-11-11T09:25:28;9.30;;;6.27;;
11618;SDS011;5865;48.776;9.280;2022-11-11T09:28:23;16.60;;;8.97;;
11618;SDS011;5865;48.776;9.280;2022-11-11T09:31:22;16.33;;;9.20;;
11618;SDS011;5865;48.776;9.280;2022-11-11T09:34:22;9.90;;;6.07;;
11618;SDS011;5865;48.776;9.280;2022-11-11T09:37:21;8.50;;;5.30;;
11618;SDS011;5865;48.776;9.280;2022-11-11T09:40:09;16.40;;;9.03;;
11618;SDS011;5865;48.776;9.280;2022-11-11T09:43:02;17.30;;;10.67;;
11618;SDS011;5865;48.776;9.280;2022-11-11T09:59:47;5.57;;;4.20;;
11618;SDS011;5865;48.776;9.280;2022-11-11T10:02:38;6.77;;;4.07;;
11618;SDS011;5865;48.776;9.280;2022-11-11T10:05:43;6.80;;;3.90;;
11618;SDS011;5865;48.776;9.280;2022-11-11T10:08:46;6.63;;;4.10;;
11618;SDS011;5865;48.776;9.280;2022-11-11T10:11:39;5.47;;;3.90;;
11618;SDS011;5865;48.776;9.280;2022-11-11T10:14:34;5.53;;;3.10;;
11618;SDS011;5865;48.776;9.280;2022-11-11T10:17:27;5.63;;;3.30;;
11618;SDS011;5865;48.776;9.280;2022-11-11T10:20:19;4.23;;;3.40;;
11618;SDS011;5865;48.776;9.280;2022-11-11T10:23:10;4.30;;;3.00;;
11618;SDS011;5865;48.776;9.280;2022-11-11T10:26:00;5.50;;;3.20;;
11618;SDS011;5865;48.776;9.280;2022-11-11T10:29:04;4.67;;;3.30;;
11618;SDS011;5865;48.776;9.280;2022-11-11T10:31:57;5.07;;;3.20;;
11618;SDS011;5865;48.776;9.280;2022-11-11T10:34:59;5.23;;;3.40;;
11618;SDS011;5865;48.776;9.280;2022-11-11T10:38:16;4.37;;;3.10;;
11618;SDS011;5865;48.776;9.280;2022-11-11T10:41:30;4.87;;;3.30;;
11618;SDS011;5865;48.776;9.280;2022-11-11T10:44:36;5.37;;;3.47;;
11618;SDS011;5865;48.776;9.280;2022-11-11T10:47:40;5.53;;;3.33;;
11618;SDS011;5865;48.776;9.280;2022-11-11T11:11:23;10.63;;;6.57;;
11618;SDS011;5865;48.776;9.280;2022-11-11T11:14:14;3.63;;;3.00;;
11618;SDS011;5865;48.776;9.280;2022-11-11T11:17:06;4.13;;;3.13;;
11618;SDS011;5865;48.776;9.280;2022-11-11T11:20:09;3.80;;;2.50;;
11618;SDS011;5865;48.776;9.280;2022-11-11T11:23:15;5.17;;;2.90;;
11618;SDS011;5865;48.776;9.280;2022-11-11T11:36:57;4.27;;;3.23;;
11618;SDS011;5865;48.776;9.280;2022-11-11T11:39:58;5.90;;;3.33;;
11618;SDS011;5865;48.776;9.280;2022-11-11T11:42:58;5.40;;;3.03;;
11618;SDS011;5865;48.776;9.280;2022-11-11T11:45:58;4.93;;;3.40;;
11618;SDS011;5865;48.776;9.280;2022-11-11T12:09:53;5.33;;;3.90;;
11618;SDS011;5865;48.776;9.280;2022-11-11T12:12:47;3.90;;;3.20;;
11618;SDS011;5865;48.776;9.280;2022-11-11T12:15:39;4.47;;;3.53;;
11618;SDS011;5865;48.776;9.280;2022-11-11T12:18:34;6.87;;;3.17;;
11618;SDS011;5865;48.776;9.280;2022-11-11T12:22:06;5.10;;;2.67;;
11618;SDS011;5865;48.776;9.280;2022-11-11T12:42:12;2.30;;;1.53;;
11618;SDS011;5865;48.776;9.280;2022-11-11T12:45:09;3.35;;;1.90;;
11618;SDS011;5865;48.776;9.280;2022-11-11T12:48:02;3.77;;;2.70;;
11618;SDS011;5865;48.776;9.280;2022-11-11T12:51:10;4.87;;;3.67;;
11618;SDS011;5865;48.776;9.280;2022-11-11T12:54:12;9.87;;;6.37;;
11618;SDS011;5865;48.776;9.280;2022-11-11T12:57:23;7.33;;;3.63;;
11618;SDS011;5865;48.776;9.280;2022-11-11T13:00:26;4.87;;;3.07;;
11618;SDS011;5865;48.776;9.280;2022-11-11T13:03:32;5.10;;;3.50;;
11618;SDS011;5865;48.776;9.280;2022-11-11T13:06:47;7.77;;;4.40;;
11618;SDS011;5865;48.776;9.280;2022-11-11T13:10:02;5.53;;;3.50;;
11618;SDS011;5865;48.776;9.280;2022-11-11T13:20:12;4.30;;;3.23;;
11618;SDS011;5865;48.776;9.280;2022-11-11T13:23:18;6.20;;;4.03;;
11618;SDS011;5865;48.776;9.280;2022-11-11T13:26:23;6.60;;;4.23;;
11618;SDS011;5865;48.776;9.280;2022-11-11T13:33:02;4.13;;;3.73;;
11618;SDS011;5865;48.776;9.280;2022-11-11T13:35:54;3.45;;;2.90;;
11618;SDS011;5865;48.776;9.280;2022-11-11T13:38:43;5.95;;;3.78;;
11618;SDS011;5865;48.776;9.280;2022-11-11T13:41:31;7.28;;;3.78;;
11618;SDS011;5865;48.776;9.280;2022-11-11T13:44:23;5.82;;;2.55;;
11618;SDS011;5865;48.776;9.280;2022-11-11T13:47:28;5.28;;;3.00;;
11618;SDS011;5865;48.776;9.280;2022-11-11T13:50:38;5.25;;;3.30;;
11618;SDS011;5865;48.776;9.280;2022-11-11T13:53:34;4.50;;;3.15;;
11618;SDS011;5865;48.776;9.280;2022-11-11T13:56:22;5.35;;;3.10;;
11618;SDS011;5865;48.776;9.280;2022-11-11T13:59:14;3.65;;;3.28;;
11618;SDS011;5865;48.776;9.280;2022-11-11T14:02:11;3.70;;;2.80;;
11618;SDS011;5865;48.776;9.280;2022-11-11T14:05:20;6.07;;;3.10;;
11618;SDS011;5865;48.776;9.280;2022-11-11T14:08:08;7.78;;;3.22;;
11618;SDS011;5865;48.776;9.280;2022-11-11T14:10:54;5.55;;;2.90;;
11618;SDS011;5865;48.776;9.280;2022-11-11T14:13:42;3.28;;;2.85;;
11618;SDS011;5865;48.776;9.280;2022-11-11T14:19:48;5.75;;;3.90;;
11618;SDS011;5865;48.776;9.280;2022-11-11T14:22:34;4.63;;;2.90;;
11618;SDS011;5865;48.776;9.280;2022-11-11T14:25:23;2.95;;;2.55;;
11618;SDS011;5865;48.776;9.280;2022-11-11T14:28:18;6.70;;;3.15;;
11618;SDS011;5865;48.776;9.280;2022-11-11T14:34:47;5.18;;;3.40;;
11618;SDS011;5865;48.776;9.280;2022-11-11T14:37:42;7.18;;;4.22;;
11618;SDS011;5865;48.776;9.280;2022-11-11T14:40:54;6.65;;;4.40;;
11618;SDS011;5865;48.776;9.280;2022-11-11T14:43:39;4.75;;;3.03;;
11618;SDS011;5865;48.776;9.280;2022-11-11T14:46:25;7.13;;;4.20;;
11618;SDS011;5865;48.776;9.280;2022-11-11T14:49:11;9.80;;;6.20;;
11618;SDS011;5865;48.776;9.280;2022-11-11T14:52:29;5.78;;;3.35;;
11618;SDS011;5865;48.776;9.280;2022-11-11T14:55:23;4.68;;;3.00;;
11618;SDS011;5865;48.776;9.280;2022-11-11T15:02:05;9.27;;;5.10;;
11618;SDS011;5865;48.776;9.280;2022-11-11T15:05:24;18.13;;;12.27;;
11618;SDS011;5865;48.776;9.280;2022-11-11T15:08:39;12.30;;;8.77;;
11618;SDS011;5865;48.776;9.280;2022-11-11T15:11:45;13.50;;;8.77;;
11618;SDS011;5865;48.776;9.280;2022-11-11T15:14:57;6.57;;;4.50;;
11618;SDS011;5865;48.776;9.280;2022-11-11T15:21:28;4.63;;;3.40;;
11618;SDS011;5865;48.776;9.280;2022-11-11T15:24:22;3.60;;;2.83;;
11618;SDS011;5865;48.776;9.280;2022-11-11T15:27:18;4.40;;;3.10;;
11618;SDS011;5865;48.776;9.280;2022-11-11T15:30:11;5.00;;;2.97;;
11618;SDS011;5865;48.776;9.280;2022-11-11T15:33:01;4.60;;;2.87;;
11618;SDS011;5865;48.776;9.280;2022-11-11T15:35:56;5.37;;;3.37;;
11618;SDS011;5865;48.776;9.280;2022-11-11T15:38:48;5.60;;;4.00;;
11618;SDS011;5865;48.776;9.280;2022-11-11T15:41:35;5.67;;;4.17;;
11618;SDS011;5865;48.776;9.280;2022-11-11T15:44:27;5.67;;;4.43;;
11618;SDS011;5865;48.776;9.280;2022-11-11T15:47:15;7.17;;;5.30;;
11618;SDS011;5865;48.776;9.280;2022-11-11T15:50:01;6.70;;;4.27;;
11618;SDS011;5865;48.776;9.280;2022-11-11T15:52:52;6.83;;;4.30;;
11618;SDS011;5865;48.776;9.280;2022-11-11T15:55:40;5.93;;;4.50;;
11618;SDS011;5865;48.776;9.280;2022-11-11T15:58:27;7.30;;;4.70;;
11618;SDS011;5865;48.776;9.280;2022-11-11T16:01:13;6.10;;;4.47;;
11618;SDS011;5865;48.776;9.280;2022-11-11T16:04:15;6.93;;;3.77;;
11618;SDS011;5865;48.776;9.280;2022-11-11T16:07:03;5.43;;;4.33;;
11618;SDS011;5865;48.776;9.280;2022-11-11T16:09:48;5.37;;;4.13;;
11618;SDS011;5865;48.776;9.280;2022-11-11T16:19:40;7.17;;;4.10;;
11618;SDS011;5865;48.776;9.280;2022-11-11T16:22:41;6.67;;;4.00;;
11618;SDS011;5865;48.776;9.280;2022-11-11T16:25:44;6.53;;;4.10;;
11618;SDS011;5865;48.776;9.280;2022-11-11T16:28:45;38.70;;;21.83;;
11618;SDS011;5865;48.776;9.280;2022-11-11T16:31:40;10.40;;;6.53;;
11618;SDS011;5865;48.776;9.280;2022-11-11T16:34:32;5.07;;;4.07;;
11618;SDS011;5865;48.776;9.280;2022-11-11T17:30:18;8.30;;;6.30;;
11618;SDS011;5865;48.776;9.280;2022-11-11T17:33:03;10.30;;;5.83;;
11618;SDS011;5865;48.776;9.280;2022-11-11T17:35:49;6.97;;;5.60;;
11618;SDS011;5865;48.776;9.280;2022-11-11T17:38:48;9.63;;;5.97;;
11618;SDS011;5865;48.776;9.280;2022-11-11T17:41:42;10.43;;;6.33;;
11618;SDS011;5865;48.776;9.280;2022-11-11T17:44:42;11.80;;;8.23;;
11618;SDS011;5865;48.776;9.280;2022-11-11T17:51:17;6.73;;;4.23;;
11618;SDS011;5865;48.776;9.280;2022-11-11T17:54:17;5.30;;;4.17;;
11618;SDS011;5865;48.776;9.280;2022-11-11T17:57:17;4.60;;;4.07;;
11618;SDS011;5865;48.776;9.280;2022-11-11T18:00:16;6.70;;;4.77;;
11618;SDS011;5865;48.776;9.280;2022-11-11T18:03:16;6.23;;;4.60;;
11618;SDS011;5865;48.776;9.280;2022-11-11T18:47:47;7.43;;;6.27;;
11618;SDS011;5865;48.776;9.280;2022-11-11T18:50:33;8.87;;;6.20;;
11618;SDS011;5865;48.776;9.280;2022-11-11T18:53:18;6.47;;;5.40;;
11618;SDS011;5865;48.776;9.280;2022-11-11T18:56:05;9.03;;;7.13;;
11618;SDS011;5865;48.776;9.280;2022-11-11T18:58:54;12.43;;;9.17;;
11618;SDS011;5865;48.776;9.280;2022-11-11T19:01:40;10.40;;;8.37;;
11618;SDS011;5865;48.776;9.280;2022-11-11T19:04:28;11.60;;;7.83;;
11618;SDS011;5865;48.776;9.280;2022-11-11T19:07:13;11.27;;;8.00;;
11618;SDS011;5865;48.776;9.280;2022-11-11T19:09:59;8.97;;;6.57;;
11618;SDS011;5865;48.776;9.280;2022-11-11T19:12:46;11.13;;;6.97;;
11618;SDS011;5865;48.776;9.280;2022-11-11T19:15:34;8.63;;;6.87;;
11618;SDS011;5865;48.776;9.280;2022-11-11T19:18:20;10.30;;;6.53;;
11618;SDS011;5865;48.776;9.280;2022-11-11T19:21:09;12.23;;;8.13;;
11618;SDS011;5865;48.776;9.280;2022-11-11T19:23:57;12.27;;;7.67;;
11618;SDS011;5865;48.776;9.280;2022-11-11T19:26:43;10.27;;;7.20;;
11618;SDS011;5865;48.776;9.280;2022-11-11T19:29:30;12.27;;;8.20;;
11618;SDS011;5865;48.776;9.280;2022-11-11T19:32:16;15.17;;;8.07;;
11618;SDS011;5865;48.776;9.280;2022-11-11T19:35:01;11.13;;;8.40;;
11618;SDS011;5865;48.776;9.280;2022-11-11T19:37:49;11.43;;;8.37;;
11618;SDS011;5865;48.776;9.280;2022-11-11T19:40:35;13.13;;;8.20;;
11618;SDS011;5865;48.776;9.280;2022-11-11T19:43:21;10.30;;;7.60;;
11618;SDS011;5865;48.776;9.280;2022-11-11T19:46:09;14.07;;;9.10;;
11618;SDS011;5865;48.776;9.280;2022-11-11T19:48:57;12.60;;;9.27;;
11618;SDS011;5865;48.776;9.280;2022-11-11T19:51:43;17.10;;;12.33;;
11618;SDS011;5865;48.776;9.280;2022-11-11T19:54:30;15.57;;;11.77;;
11618;SDS011;5865;48.776;9.280;2022-11-11T19:57:16;14.50;;;10.40;;
11618;SDS011;5865;48.776;9.280;2022-11-11T20:00:01;20.17;;;12.43;;
11618;SDS011;5865;48.776;9.280;2022-11-11T20:02:48;15.33;;;11.17;;
11618;SDS011;5865;48.776;9.280;2022-11-11T20:05:34;18.47;;;12.20;;
11618;SDS011;5865;48.776;9.280;2022-11-11T20:08:20;13.60;;;8.60;;
11618;SDS011;5865;48.776;9.280;2022-11-11T20:11:07;17.10;;;10.17;;
11618;SDS011;5865;48.776;9.280;2022-11-11T20:13:53;16.87;;;11.73;;
11618;SDS011;5865;48.776;9.280;2022-11-11T20:16:39;15.30;;;11.07;;
11618;SDS011;5865;48.776;9.280;2022-11-11T20:19:25;12.83;;;10.00;;
11618;SDS011;5865;48.776;9.280;2022-11-11T20:22:10;15.47;;;10.23;;
11618;SDS011;5865;48.776;9.280;2022-11-11T20:24:56;16.37;;;10.83;;
11618;SDS011;5865;48.776;9.280;2022-11-11T20:27:43;12.80;;;9.87;;
11618;SDS011;5865;48.776;9.280;2022-11-11T20:30:29;12.53;;;8.43;;
11618;SDS011;5865;48.776;9.280;2022-11-11T20:33:15;12.77;;;8.70;;
11618;SDS011;5865;48.776;9.280;2022-11-11T20:36:00;14.30;;;9.03;;
11618;SDS011;5865;48.776;9.280;2022-11-11T20:38:46;12.37;;;8.87;;
11618;SDS011;5865;48.776;9.280;2022-11-11T20:41:32;14.17;;;10.03;;
11618;SDS011;5865;48.776;9.280;2022-11-11T20:44:19;12.90;;;9.40;;
11618;SDS011;5865;48.776;9.280;2022-11-11T20:47:05;12.33;;;9.00;;
11618;SDS011;5865;48.776;9.280;2022-11-11T20:49:52;14.53;;;9.63;;
11618;SDS011;5865;48.776;9.280;2022-11-11T20:52:37;15.17;;;10.33;;
11618;SDS011;5865;48.776;9.280;2022-11-11T20:55:23;13.13;;;9.03;;
11618;SDS011;5865;48.776;9.280;2022-11-11T20:58:08;15.73;;;9.77;;
11618;SDS011;5865;48.776;9.280;2022-11-11T21:01:00;17.43;;;11.23;;
11618;SDS011;5865;48.776;9.280;2022-11-11T21:03:46;13.53;;;10.60;;
11618;SDS011;5865;48.776;9.280;2022-11-11T21:06:35;14.60;;;10.70;;
11618;SDS011;5865;48.776;9.280;2022-11-11T21:09:21;15.83;;;10.70;;
11618;SDS011;5865;48.776;9.280;2022-11-11T21:12:07;16.23;;;11.20;;
11618;SDS011;5865;48.776;9.280;2022-11-11T21:14:52;18.20;;;11.60;;
11618;SDS011;5865;48.776;9.280;2022-11-11T21:17:40;16.30;;;11.57;;
11618;SDS011;5865;48.776;9.280;2022-11-11T21:20:25;17.97;;;11.97;;
11618;SDS011;5865;48.776;9.280;2022-11-11T21:23:11;18.43;;;12.77;;
11618;SDS011;5865;48.776;9.280;2022-11-11T21:25:59;19.90;;;13.03;;
11618;SDS011;5865;48.776;9.280;2022-11-11T21:28:45;22.47;;;13.63;;
11618;SDS011;5865;48.776;9.280;2022-11-11T21:31:31;17.90;;;13.00;;
11618;SDS011;5865;48.776;9.280;2022-11-11T21:34:21;18.60;;;12.37;;
11618;SDS011;5865;48.776;9.280;2022-11-11T21:37:07;19.40;;;12.37;;
11618;SDS011;5865;48.776;9.280;2022-11-11T21:39:52;17.40;;;12.33;;
11618;SDS011;5865;48.776;9.280;2022-11-11T21:42:38;20.53;;;13.73;;
11618;SDS011;5865;48.776;9.280;2022-11-11T21:45:23;16.60;;;12.30;;
11618;SDS011;5865;48.776;9.280;2022-11-11T21:48:09;17.10;;;12.60;;
11618;SDS011;5865;48.776;9.280;2022-11-11T21:51:00;16.53;;;11.47;;
11618;SDS011;5865;48.776;9.280;2022-11-11T21:53:48;16.90;;;11.23;;
11618;SDS011;5865;48.776;9.280;2022-11-11T22:00:23;17.17;;;11.63;;
11618;SDS011;5865;48.776;9.280;2022-11-11T22:35:13;15.63;;;11.07;;
11618;SDS011;5865;48.776;9.280;2022-11-11T22:38:04;15.70;;;10.30;;
11618;SDS011;5865;48.776;9.280;2022-11-11T22:40:58;16.07;;;11.00;;
11618;SDS011;5865;48.776;9.280;2022-11-11T22:43:45;14.27;;;11.20;;
11618;SDS011;5865;48.776;9.280;2022-11-11T22:46:46;15.83;;;10.90;;
11618;SDS011;5865;48.776;9.280;2022-11-11T22:49:46;17.23;;;11.20;;
11618;SDS011;5865;48.776;9.280;2022-11-11T23:42:21;11.47;;;8.20;;
11618;SDS011;5865;48.776;9.280;2022-11-11T23:45:21;12.97;;;8.13;;
11618;SDS011;5865;48.776;9.280;2022-11-11T23:48:22;12.77;;;9.33;;
11618;SDS011;5865;48.776;9.280;2022-11-11T23:51:28;12.70;;;9.50;;
11618;SDS011;5865;48.776;9.280;2022-11-11T23:54:29;15.43;;;10.50;;
